createdAt,value
2023-01-15T00:00:38.766Z,73.95
2023-01-15T00:03:12.852Z,74.41
2023-01-15T00:05:47.862Z,73.63
2023-01-15T00:08:16.455Z,73.59
2023-01-15T00:10:43.243Z,74.18
2023-01-15T00:13:10.944Z,74.05
2023-01-15T00:15:38.090Z,74.55
2023-01-15T00:18:05.304Z,74.34
2023-01-15T00:20:32.646Z,74.38
2023-01-15T00:22:59.447Z,74.37
2023-01-15T00:25:27.759Z,74.82
2023-01-15T00:27:54.572Z,75.34
2023-01-15T00:30:21.834Z,74.45
2023-01-15T00:32:48.745Z,74.64
2023-01-15T00:35:18.413Z,74.91
2023-01-15T00:37:45.515Z,74.76
2023-01-15T00:40:14.319Z,74.95
2023-01-15T00:42:42.961Z,75.31
2023-01-15T00:45:13.598Z,75.52
2023-01-15T00:47:43.447Z,75.94
2023-01-15T00:50:14.283Z,76.17
2023-01-15T00:52:42.052Z,76.43
2023-01-15T00:55:09.709Z,76.33
2023-01-15T00:57:36.612Z,75.75
2023-01-15T01:00:07.079Z,75.76
2023-01-15T01:02:35.124Z,75.54
2023-01-15T01:05:02.103Z,75.07
2023-01-15T01:07:30.042Z,74.54
2023-01-15T01:09:56.902Z,74.06
2023-01-15T01:12:23.839Z,73.52
2023-01-15T01:14:50.650Z,72.99
2023-01-15T01:17:18.829Z,73.34
2023-01-15T01:19:45.776Z,73.21
2023-01-15T01:22:12.725Z,73.41
2023-01-15T01:24:40.090Z,72.79
2023-01-15T01:27:07.066Z,72.80
2023-01-15T01:29:33.941Z,72.63
2023-01-15T01:32:01.091Z,72.48
2023-01-15T01:34:29.305Z,72.33
2023-01-15T01:36:56.108Z,71.96
2023-01-15T01:39:22.874Z,71.78
2023-01-15T01:41:49.791Z,72.26
2023-01-15T01:45:07.134Z,71.73
2023-01-15T01:47:35.387Z,71.62
2023-01-15T01:50:11.865Z,71.42
2023-01-15T01:52:46.059Z,72.31
2023-01-15T01:55:18.010Z,72.12
2023-01-15T01:57:47.792Z,71.72
2023-01-15T02:00:15.642Z,71.44
2023-01-15T02:02:46.749Z,71.59
2023-01-15T02:05:33.839Z,71.74
2023-01-15T02:08:00.993Z,71.63
2023-01-15T02:10:28.928Z,72.27
2023-01-15T02:13:07.034Z,72.32
2023-01-15T02:15:40.325Z,71.47
2023-01-15T02:18:20.475Z,72.38
2023-01-15T02:20:57.494Z,72.45
2023-01-15T02:24:03.219Z,72.76
2023-01-15T02:26:59.008Z,73.20
2023-01-15T02:29:38.603Z,72.65
2023-01-15T02:32:13.381Z,73.60
2023-01-15T02:34:50.592Z,72.96
2023-01-15T02:37:26.566Z,72.84
2023-01-15T02:39:59.265Z,72.66
2023-01-15T02:42:30.935Z,72.98
2023-01-15T02:45:01.476Z,73.06
2023-01-15T02:47:35.968Z,73.44
2023-01-15T02:50:12.728Z,73.87
2023-01-15T02:52:47.025Z,73.31
2023-01-15T02:55:30.258Z,73.93
2023-01-15T02:58:04.993Z,74.00
2023-01-15T03:00:43.942Z,73.98
2023-01-15T03:03:18.391Z,74.47
2023-01-15T03:05:55.942Z,74.52
2023-01-15T03:08:23.109Z,75.35
2023-01-15T03:11:04.963Z,75.09
2023-01-15T03:13:48.250Z,75.98
2023-01-15T03:16:26.162Z,75.24
2023-01-15T03:19:00.995Z,75.60
2023-01-15T03:21:40.981Z,75.94
2023-01-15T03:24:12.789Z,76.04
2023-01-15T03:26:39.945Z,76.14
2023-01-15T03:29:09.837Z,76.05
2023-01-15T03:31:37.876Z,75.82
2023-01-15T03:34:04.968Z,76.04
2023-01-15T03:36:31.755Z,76.19
2023-01-15T03:39:01.978Z,75.59
2023-01-15T03:41:55.986Z,75.36
2023-01-15T03:44:35.326Z,75.22
2023-01-15T03:47:20.184Z,75.34
2023-01-15T03:49:59.653Z,75.32
2023-01-15T03:52:48.068Z,75.54
2023-01-15T03:55:22.474Z,74.99
2023-01-15T03:58:11.082Z,74.91
2023-01-15T04:00:49.028Z,75.05
2023-01-15T04:03:20.344Z,74.75
2023-01-15T04:05:51.654Z,74.88
2023-01-15T04:08:26.527Z,74.73
2023-01-15T04:10:55.164Z,75.32
2023-01-15T04:13:24.213Z,74.83
2023-01-15T04:15:55.716Z,75.05
2023-01-15T04:18:23.160Z,74.87
2023-01-15T04:20:50.008Z,75.24
2023-01-15T04:23:17.203Z,75.32
2023-01-15T04:25:44.030Z,74.61
2023-01-15T04:28:10.879Z,75.51
2023-01-15T04:30:37.791Z,75.12
2023-01-15T04:33:06.508Z,75.82
2023-01-15T04:35:33.309Z,75.75
2023-01-15T04:38:00.944Z,76.66
2023-01-15T04:40:28.117Z,80.39
2023-01-15T04:42:56.228Z,83.17
2023-01-15T04:45:23.083Z,84.15
2023-01-15T04:47:49.896Z,84.83
2023-01-15T04:50:18.205Z,85.26
2023-01-15T04:52:45.012Z,86.29
2023-01-15T04:55:11.861Z,86.19
2023-01-15T04:57:38.777Z,86.27
2023-01-15T05:00:07.813Z,87.31
2023-01-15T05:02:34.712Z,87.46
2023-01-15T05:05:01.648Z,87.21
2023-01-15T05:07:29.898Z,87.77
2023-01-15T05:09:56.729Z,87.21
2023-01-15T05:12:23.683Z,86.62
2023-01-15T05:14:50.459Z,86.72
2023-01-15T05:17:17.574Z,86.33
2023-01-15T05:19:44.402Z,86.40
2023-01-15T05:22:11.469Z,85.48
2023-01-15T05:24:39.909Z,86.12
2023-01-15T05:27:06.734Z,85.00
2023-01-15T05:29:33.590Z,86.37
2023-01-15T05:32:00.490Z,86.78
2023-01-15T05:34:27.342Z,87.23
2023-01-15T05:36:54.215Z,87.29
2023-01-15T05:39:20.991Z,87.79
2023-01-15T05:41:49.275Z,87.71
2023-01-15T05:44:21.881Z,88.14
2023-01-15T05:46:50.685Z,87.63
2023-01-15T05:49:22.166Z,87.35
2023-01-15T05:51:50.628Z,87.25
2023-01-15T05:54:21.165Z,87.74
2023-01-15T05:56:49.414Z,87.88
2023-01-15T05:59:18.664Z,87.70
2023-01-15T06:01:45.684Z,87.96
2023-01-15T06:04:13.546Z,87.73
2023-01-15T06:06:42.062Z,87.15
2023-01-15T06:09:09.938Z,87.14
2023-01-15T06:11:36.721Z,87.09
2023-01-15T06:14:05.382Z,86.94
2023-01-15T06:16:32.667Z,86.06
2023-01-15T06:19:01.556Z,86.19
2023-01-15T06:21:28.339Z,85.56
2023-01-15T06:23:56.201Z,85.73
2023-01-15T06:26:23.671Z,85.97
2023-01-15T06:28:50.674Z,86.08
2023-01-15T06:31:21.847Z,87.11
2023-01-15T06:33:49.197Z,86.72
2023-01-15T06:36:19.482Z,86.93
2023-01-15T06:38:46.220Z,87.40
2023-01-15T06:41:15.843Z,87.68
2023-01-15T06:43:42.637Z,88.04
2023-01-15T06:46:09.923Z,88.29
2023-01-15T06:48:38.210Z,87.76
2023-01-15T06:51:05.385Z,86.58
2023-01-15T06:53:32.150Z,86.84
2023-01-15T06:55:58.895Z,86.09
2023-01-15T06:58:25.877Z,86.55
2023-01-15T07:00:52.734Z,86.67
2023-01-15T07:03:20.151Z,86.51
2023-01-15T07:05:48.295Z,84.16
2023-01-15T07:08:15.176Z,84.08
2023-01-15T07:10:41.962Z,83.35
2023-01-15T07:13:09.984Z,82.72
2023-01-15T07:15:38.941Z,84.56
2023-01-15T07:18:05.851Z,84.27
2023-01-15T07:20:33.022Z,83.70
2023-01-15T07:23:01.360Z,84.12
2023-01-15T07:25:28.219Z,84.14
2023-01-15T07:27:54.975Z,84.46
2023-01-15T07:30:21.919Z,84.61
2023-01-15T07:32:49.970Z,83.93
2023-01-15T07:35:16.870Z,84.72
2023-01-15T07:37:43.742Z,84.63
2023-01-15T07:40:12.755Z,83.85
2023-01-15T07:42:39.629Z,84.75
2023-01-15T07:45:08.513Z,84.68
2023-01-15T07:47:35.365Z,83.81
2023-01-15T07:50:03.399Z,83.18
2023-01-15T07:52:30.391Z,84.11
2023-01-15T07:54:57.527Z,83.39
2023-01-15T07:57:25.741Z,84.22
2023-01-15T07:59:52.755Z,83.56
2023-01-15T08:02:19.673Z,83.16
2023-01-15T08:04:46.979Z,82.81
2023-01-15T08:07:14.740Z,82.32
2023-01-15T08:09:41.993Z,81.95
2023-01-15T08:12:11.609Z,81.62
2023-01-15T08:14:40.081Z,82.51
2023-01-15T08:17:06.947Z,81.74
2023-01-15T08:19:33.797Z,82.84
2023-01-15T08:22:00.598Z,82.14
2023-01-15T08:24:28.033Z,81.80
2023-01-15T08:26:56.035Z,81.74
2023-01-15T08:29:23.099Z,82.18
2023-01-15T08:31:51.245Z,82.23
2023-01-15T08:34:18.180Z,82.06
2023-01-15T08:36:45.223Z,82.08
2023-01-15T08:39:12.429Z,81.96
2023-01-15T08:41:39.263Z,82.02
2023-01-15T08:44:06.044Z,82.20
2023-01-15T08:46:33.038Z,82.66
2023-01-15T08:49:01.279Z,81.36
2023-01-15T08:51:28.221Z,81.70
2023-01-15T08:53:55.054Z,82.19
2023-01-15T08:56:21.948Z,81.60
2023-01-15T08:58:48.805Z,81.05
2023-01-15T09:01:16.991Z,80.23
2023-01-15T09:03:43.896Z,81.45
2023-01-15T09:06:12.178Z,81.31
2023-01-15T09:08:39.899Z,81.10
2023-01-15T09:11:09.479Z,81.13
2023-01-15T09:13:37.096Z,80.79
2023-01-15T09:16:06.910Z,81.82
2023-01-15T09:18:35.104Z,81.39
2023-01-15T09:21:01.876Z,81.28
2023-01-15T09:23:30.969Z,81.19
2023-01-15T09:26:01.050Z,80.76
2023-01-15T09:28:32.608Z,80.84
2023-01-15T09:30:59.909Z,80.77
2023-01-15T09:33:26.910Z,80.65
2023-01-15T09:35:54.536Z,80.97
2023-01-15T09:38:22.044Z,80.73
2023-01-15T09:40:55.052Z,80.11
2023-01-15T09:43:50.656Z,79.99
2023-01-15T09:46:28.637Z,80.75
2023-01-15T09:49:13.370Z,79.99
2023-01-15T09:51:54.120Z,79.71
2023-01-15T09:54:46.677Z,79.17
2023-01-15T09:57:19.452Z,79.77
2023-01-15T09:59:50.572Z,79.89
2023-01-15T10:02:27.062Z,80.71
2023-01-15T10:05:04.788Z,80.43
2023-01-15T10:07:45.083Z,81.59
2023-01-15T10:10:19.825Z,79.92
2023-01-15T10:12:57.720Z,80.39
2023-01-15T10:15:35.864Z,79.89
2023-01-15T10:18:04.819Z,80.36
2023-01-15T10:21:03.381Z,80.02
2023-01-15T10:23:36.815Z,80.78
2023-01-15T10:26:14.600Z,79.84
2023-01-15T10:29:01.215Z,80.67
2023-01-15T10:31:48.803Z,80.27
2023-01-15T10:35:01.069Z,80.51
2023-01-15T10:37:37.830Z,81.10
2023-01-15T10:40:29.344Z,81.02
2023-01-15T10:43:05.077Z,80.57
2023-01-15T10:45:43.230Z,80.38
2023-01-15T10:48:30.362Z,79.75
2023-01-15T10:51:08.350Z,79.78
2023-01-15T10:53:45.214Z,80.45
2023-01-15T10:56:26.456Z,80.51
2023-01-15T10:59:06.262Z,81.30
2023-01-15T11:01:33.176Z,81.21
2023-01-15T11:04:01.621Z,80.63
2023-01-15T11:06:31.533Z,80.83
2023-01-15T11:09:09.199Z,81.10
2023-01-15T11:11:45.527Z,80.96
2023-01-15T11:14:12.450Z,81.43
2023-01-15T11:16:44.288Z,80.38
2023-01-15T11:19:27.415Z,79.86
2023-01-15T11:21:54.673Z,79.33
2023-01-15T11:24:21.889Z,78.90
2023-01-15T11:26:53.015Z,79.54
2023-01-15T11:29:33.525Z,78.91
2023-01-15T11:32:00.478Z,78.36
2023-01-15T11:34:28.860Z,78.27
2023-01-15T11:37:04.351Z,77.73
2023-01-15T11:39:31.849Z,77.42
2023-01-15T11:42:00.155Z,77.68
2023-01-15T11:44:26.954Z,78.01
2023-01-15T11:46:55.286Z,78.00
2023-01-15T11:49:22.431Z,76.65
2023-01-15T11:51:50.814Z,76.04
2023-01-15T11:54:18.569Z,75.62
2023-01-15T11:56:47.783Z,75.73
2023-01-15T11:59:18.807Z,76.60
2023-01-15T12:01:54.740Z,76.13
2023-01-15T12:04:33.008Z,76.28
2023-01-15T12:07:05.108Z,76.34
2023-01-15T12:10:04.906Z,76.21
2023-01-15T12:12:54.445Z,75.47
2023-01-15T12:15:37.629Z,75.98
2023-01-15T12:18:27.558Z,74.90
2023-01-15T12:21:03.585Z,74.98
2023-01-15T12:24:11.771Z,74.22
2023-01-15T12:26:55.457Z,74.82
2023-01-15T12:29:28.241Z,75.73
2023-01-15T12:32:03.062Z,74.40
2023-01-15T12:34:42.833Z,73.31
2023-01-15T12:37:17.581Z,73.63
2023-01-15T12:39:51.966Z,73.06
2023-01-15T12:42:26.062Z,72.70
2023-01-15T12:45:01.030Z,72.78
2023-01-15T12:47:40.007Z,72.47
2023-01-15T12:50:27.106Z,72.73
2023-01-15T12:53:04.419Z,73.26
2023-01-15T12:55:40.735Z,73.36
2023-01-15T12:58:33.572Z,72.89
2023-01-15T13:01:13.680Z,73.25
2023-01-15T13:03:58.119Z,73.09
2023-01-15T13:06:27.271Z,72.57
2023-01-15T13:09:02.834Z,73.08
2023-01-15T13:11:32.023Z,72.72
2023-01-15T13:13:58.983Z,73.45
2023-01-15T13:16:48.475Z,72.55
2023-01-15T13:19:37.073Z,73.15
2023-01-15T13:22:14.553Z,72.89
2023-01-15T13:25:23.831Z,72.51
2023-01-15T13:28:14.672Z,71.78
2023-01-15T13:31:00.832Z,71.34
2023-01-15T13:33:38.747Z,69.40
2023-01-15T13:36:16.122Z,67.88
2023-01-15T13:38:50.426Z,68.14
2023-01-15T13:41:22.764Z,67.89
2023-01-15T13:43:51.001Z,67.20
2023-01-15T13:46:21.537Z,66.70
2023-01-15T13:48:52.069Z,67.50
2023-01-15T13:51:30.212Z,67.15
2023-01-15T13:54:01.420Z,66.90
2023-01-15T13:56:31.194Z,66.43
2023-01-15T13:59:02.321Z,67.29
2023-01-15T14:01:35.225Z,66.14
2023-01-15T14:04:06.521Z,66.29
2023-01-15T14:06:40.322Z,65.48
2023-01-15T14:09:11.878Z,64.42
2023-01-15T14:11:56.482Z,61.92
2023-01-15T14:15:08.510Z,63.53
2023-01-15T14:18:16.812Z,65.74
2023-01-15T14:21:24.309Z,65.08
2023-01-15T14:24:19.557Z,65.46
2023-01-15T14:27:00.036Z,65.94
2023-01-15T14:30:07.069Z,65.54
2023-01-15T14:32:58.624Z,66.30
2023-01-15T14:35:26.665Z,61.74
2023-01-15T14:37:57.763Z,60.21
2023-01-15T14:40:30.052Z,61.24
2023-01-15T14:43:03.696Z,64.13
2023-01-15T14:45:36.595Z,64.45
2023-01-15T14:48:16.270Z,64.52
2023-01-15T14:50:45.950Z,64.86
2023-01-15T14:53:34.042Z,64.99
2023-01-15T14:56:13.985Z,64.78
2023-01-15T14:58:52.928Z,65.08
2023-01-15T15:01:52.036Z,65.30
2023-01-15T15:04:36.945Z,65.93
2023-01-15T15:07:11.177Z,66.02
2023-01-15T15:09:44.143Z,66.95
2023-01-15T15:12:42.376Z,66.38
2023-01-15T15:15:19.699Z,66.85
2023-01-15T15:18:01.347Z,66.00
2023-01-15T15:20:44.034Z,66.35
2023-01-15T15:23:20.505Z,65.81
2023-01-15T15:25:59.359Z,66.00
2023-01-15T15:28:28.720Z,67.78
2023-01-15T15:30:58.711Z,68.42
2023-01-15T15:33:38.166Z,65.99
2023-01-15T15:36:08.548Z,67.27
2023-01-15T15:38:35.447Z,66.74
2023-01-15T15:41:10.867Z,66.63
2023-01-15T15:43:48.757Z,66.71
2023-01-15T15:46:26.027Z,67.17
2023-01-15T15:48:58.201Z,67.76
2023-01-15T15:51:31.785Z,68.18
2023-01-15T15:54:15.592Z,68.87
2023-01-15T15:56:50.468Z,68.31
2023-01-15T15:59:32.542Z,69.10
2023-01-15T16:02:14.369Z,69.51
2023-01-15T16:04:47.791Z,69.89
2023-01-15T16:07:20.865Z,69.85
2023-01-15T16:09:52.579Z,70.88
2023-01-15T16:12:21.083Z,70.69
2023-01-15T16:14:49.822Z,71.07
2023-01-15T16:17:18.098Z,71.35
2023-01-15T16:19:47.321Z,71.93
2023-01-15T16:22:18.124Z,72.25
2023-01-15T16:24:54.741Z,71.95
2023-01-15T16:27:31.686Z,71.53
2023-01-15T16:30:00.797Z,71.45
2023-01-15T16:32:32.276Z,71.29
2023-01-15T16:35:08.502Z,70.42
2023-01-15T16:37:36.206Z,70.99
2023-01-15T16:40:07.286Z,70.83
2023-01-15T16:42:39.839Z,70.85
2023-01-15T16:45:21.877Z,70.26
2023-01-15T16:48:08.849Z,70.91
2023-01-15T16:50:38.854Z,70.37
2023-01-15T16:53:32.041Z,70.57
2023-01-15T16:55:59.469Z,70.92
2023-01-15T16:58:36.829Z,71.16
2023-01-15T17:01:36.335Z,71.36
2023-01-15T17:04:13.873Z,71.60
2023-01-15T17:06:42.148Z,71.15
2023-01-15T17:09:14.822Z,71.54
2023-01-15T17:11:42.591Z,71.76
2023-01-15T17:14:20.502Z,71.94
2023-01-15T17:16:47.721Z,72.20
2023-01-15T17:19:16.544Z,72.28
2023-01-15T17:21:44.990Z,72.15
2023-01-15T17:24:12.301Z,72.40
2023-01-15T17:26:39.324Z,72.40
2023-01-15T17:29:06.223Z,72.21
2023-01-15T17:31:34.681Z,71.61
2023-01-15T17:34:03.409Z,71.38
2023-01-15T17:36:31.107Z,71.64
2023-01-15T17:38:59.221Z,71.64
2023-01-15T17:41:26.790Z,72.02
2023-01-15T17:43:53.671Z,71.95
2023-01-15T17:46:20.648Z,71.90
2023-01-15T17:48:47.994Z,71.39
2023-01-15T17:51:16.681Z,72.27
2023-01-15T17:53:43.648Z,72.44
2023-01-15T17:56:11.962Z,72.75
2023-01-15T17:58:39.723Z,72.83
2023-01-15T18:01:19.162Z,71.87
2023-01-15T18:03:50.808Z,71.46
2023-01-15T18:06:22.033Z,71.82
2023-01-15T18:08:58.714Z,71.67
2023-01-15T18:11:26.916Z,71.02
2023-01-15T18:13:53.928Z,71.94
2023-01-15T18:16:20.744Z,71.63
2023-01-15T18:18:47.654Z,71.51
2023-01-15T18:21:14.924Z,71.31
2023-01-15T18:23:41.677Z,71.16
2023-01-15T18:26:09.652Z,70.74
2023-01-15T18:28:38.748Z,70.16
2023-01-15T18:31:07.012Z,70.92
2023-01-15T18:33:34.796Z,71.15
2023-01-15T18:36:03.994Z,70.51
2023-01-15T18:38:32.455Z,71.14
2023-01-15T18:41:07.683Z,70.44
2023-01-15T18:43:34.608Z,71.58
2023-01-15T18:46:05.953Z,71.98
2023-01-15T18:48:34.052Z,71.52
2023-01-15T18:51:07.649Z,71.65
2023-01-15T18:53:34.497Z,71.25
2023-01-15T18:56:02.543Z,71.68
2023-01-15T18:58:30.955Z,72.03
2023-01-15T19:00:58.141Z,71.92
2023-01-15T19:03:26.481Z,71.58
2023-01-15T19:05:53.343Z,72.00
2023-01-15T19:08:20.426Z,72.31
2023-01-15T19:10:47.311Z,71.60
2023-01-15T19:13:14.794Z,72.03
2023-01-15T19:15:42.329Z,71.69
2023-01-15T19:18:11.557Z,71.79
2023-01-15T19:20:41.307Z,71.62
2023-01-15T19:23:08.216Z,72.18
2023-01-15T19:25:47.340Z,71.61
2023-01-15T19:28:18.832Z,71.21
2023-01-15T19:30:47.947Z,72.51
2023-01-15T19:33:15.008Z,72.21
2023-01-15T19:35:43.293Z,72.52
2023-01-15T19:38:10.777Z,72.37
2023-01-15T19:40:40.923Z,71.66
2023-01-15T19:43:09.870Z,71.37
2023-01-15T19:45:40.721Z,71.82
2023-01-15T19:48:14.162Z,71.64
2023-01-15T19:50:47.104Z,71.47
2023-01-15T19:53:14.526Z,71.84
2023-01-15T19:55:44.920Z,71.75
2023-01-15T19:58:16.261Z,71.58
2023-01-15T20:00:45.969Z,71.61
2023-01-15T20:03:13.083Z,71.91
2023-01-15T20:05:42.585Z,72.15
2023-01-15T20:08:11.275Z,72.29
2023-01-15T20:10:41.261Z,72.15
2023-01-15T20:13:13.863Z,72.36
2023-01-15T20:15:43.909Z,72.56
2023-01-15T20:18:12.240Z,72.48
2023-01-15T20:20:39.674Z,71.99
2023-01-15T20:23:07.166Z,72.30
2023-01-15T20:25:35.512Z,72.74
2023-01-15T20:28:02.503Z,73.54
2023-01-15T20:30:29.464Z,73.94
2023-01-15T20:33:47.491Z,74.74
2023-01-15T20:36:15.979Z,74.44
2023-01-15T20:38:42.857Z,74.68
2023-01-15T20:41:11.474Z,73.63
2023-01-15T20:43:38.507Z,73.96
2023-01-15T20:46:12.400Z,73.16
2023-01-15T20:48:39.876Z,72.87
2023-01-15T20:51:11.684Z,73.13
2023-01-15T20:53:38.902Z,73.66
2023-01-15T20:56:14.777Z,73.09
2023-01-15T20:58:42.483Z,72.35
2023-01-15T21:01:09.814Z,72.42
2023-01-15T21:03:38.392Z,73.19
2023-01-15T21:06:07.209Z,73.52
2023-01-15T21:08:35.469Z,73.37
2023-01-15T21:11:02.805Z,73.07
2023-01-15T21:13:31.301Z,73.11
2023-01-15T21:16:01.701Z,72.86
2023-01-15T21:18:31.434Z,72.61
2023-01-15T21:20:58.410Z,72.65
2023-01-15T21:23:25.641Z,72.46
2023-01-15T21:26:11.313Z,72.40
2023-01-15T21:28:39.472Z,72.38
2023-01-15T21:31:08.407Z,72.26
2023-01-15T21:33:36.619Z,72.16
2023-01-15T21:36:06.987Z,71.30
2023-01-15T21:38:34.246Z,71.71
2023-01-15T21:41:07.979Z,71.54
2023-01-15T21:43:35.052Z,71.61
2023-01-15T21:46:05.065Z,71.00
2023-01-15T21:48:32.401Z,71.27
2023-01-15T21:51:02.960Z,71.44
2023-01-15T21:53:31.285Z,71.97
2023-01-15T21:55:58.184Z,72.18
2023-01-15T21:58:25.092Z,71.76
2023-01-15T22:00:52.106Z,72.16
2023-01-15T22:03:21.250Z,71.42
2023-01-15T22:05:48.241Z,71.08
2023-01-15T22:08:15.119Z,70.49
2023-01-15T22:10:41.980Z,70.62
2023-01-15T22:13:08.947Z,70.19
2023-01-15T22:15:36.019Z,70.41
2023-01-15T22:18:03.306Z,70.53
2023-01-15T22:20:31.910Z,70.38
2023-01-15T22:22:58.743Z,70.86
2023-01-15T22:25:25.724Z,70.72
2023-01-15T22:27:52.635Z,70.71
2023-01-15T22:30:19.783Z,70.68
2023-01-15T22:32:46.702Z,71.10
2023-01-15T22:35:13.540Z,71.41
2023-01-15T22:37:41.836Z,71.37
2023-01-15T22:40:10.766Z,71.60
2023-01-15T22:42:37.570Z,71.88
2023-01-15T22:45:05.444Z,72.70
2023-01-15T22:47:32.253Z,73.47
2023-01-15T22:49:59.070Z,74.53
2023-01-15T22:52:26.316Z,74.49
2023-01-15T22:54:54.816Z,75.61
2023-01-15T22:57:21.703Z,75.85
2023-01-15T22:59:48.583Z,76.41
2023-01-15T23:02:16.444Z,75.98
2023-01-15T23:04:43.436Z,76.08
2023-01-15T23:07:10.276Z,75.04
2023-01-15T23:09:37.331Z,75.67
2023-01-15T23:12:05.904Z,75.07
2023-01-15T23:14:32.872Z,75.88
2023-01-15T23:17:00.858Z,76.37
2023-01-15T23:19:27.590Z,75.55
2023-01-15T23:21:54.556Z,75.63
2023-01-15T23:24:21.387Z,75.51
2023-01-15T23:26:48.680Z,75.40
2023-01-15T23:29:17.229Z,75.15
2023-01-15T23:31:44.234Z,75.89
2023-01-15T23:34:11.444Z,75.23
2023-01-15T23:36:39.148Z,75.40
2023-01-15T23:39:06.077Z,75.38
2023-01-15T23:41:32.860Z,75.23
2023-01-15T23:43:59.854Z,75.15
2023-01-15T23:46:29.679Z,74.86
2023-01-15T23:48:56.721Z,74.59
2023-01-15T23:51:23.567Z,74.08
2023-01-15T23:53:50.432Z,74.42
2023-01-15T23:56:17.559Z,73.88
2023-01-15T23:58:44.574Z,73.93
